Pacoima Past Weather

Last 30 Days

 
High: 99ºf @1:57 PM    Low: 68ºf @4:57 AM     Approx. Precipitation / Rain Total: in.
Time (PDT)Temp. (ºf)Humidity (%)Dew Point (ºf)Barometer (inHG)Wind Speed (mph)Wind DirectionWind Gust (mph)1hr. Precip / Rain Total (in.)Snow Depth
9:57 PM774252.13-2.61wsw7.82--
8:57 PM784051.7-6.08wsw13.03--
7:57 PM833451.71-8.69sw13.03--
6:57 PM912246.83-6.95w17.38--
5:57 PM942148.07-10.43w21.72--
4:57 PM951743.3-15.64w23.46--
3:57 PM981948.66-14.77w23.46--
2:57 PM982050.03-13.03w19.99--
1:57 PM991644.9-9.56s18.25--
12:57 PM952047.59-9.56ssw15.64--
11:57 AM932147.25-10.43ssw17.38--
10:57 AM912449.15-3.48wsw9.56--
9:57 AM842948.29-3.48wsw5.21--
8:57 AM813651.5-0.87sw4.34--
7:57 AM744048.13-0.87nnw5.21--
6:57 AM694546.76-3.48ne7.82--
5:57 AM685350.22-4.34ese6.08--
4:57 AM684847.57-2.61n6.95--
3:57 AM704748.83-2.61wnw3.48--
2:57 AM714649.16-2.61se6.95--
1:57 AM725454.43-2.61e4.34--
12:57 AM735254.32-2.61ese3.48--
High: 98ºf @3:57 PM    Low: 71ºf @4:57 AM     Approx. Precipitation / Rain Total: in.
Time (PDT)Temp. (ºf)Humidity (%)Dew Point (ºf)Barometer (inHG)Wind Speed (mph)Wind DirectionWind Gust (mph)1hr. Precip / Rain Total (in.)Snow Depth
11:57 PM744953.61-0.87ne3.48--
10:57 PM773950.13-2.61n4.34--
9:57 PM774352.77-2.61nnw5.21--
7:57 PM842847.36-6.08wnw13.03--
6:57 PM921639.34-9.56w14.77--
5:57 PM941742.5-8.69wsw18.25--
4:57 PM961439.08-13.03wsw23.46--
3:57 PM981542.43-14.77wsw23.46--
2:57 PM971947.85-13.9w20.86--
1:57 PM981948.66-10.43w19.12--
12:57 PM972049.22-6.95wsw13.9--
11:57 AM962048.4-6.08w11.3--
10:57 AM921943.79-3.48wsw6.08--
9:57 AM872647.93-2.61sw4.34--
8:57 AM813147.49-1.74nnw3.48--
7:57 AM773446.46-0.87sse2.61--
6:57 AM723744.29-0.87ene4.34--
5:57 AM714045.45-0.87ne3.48--
4:57 AM714548.58-3.48ese4.34--
2:57 AM724650.07-2.61e3.48--
1:57 AM734751.56-2.61nne5.21--
12:57 AM735153.79-3.48e4.34--
High: 97ºf @1:57 PM    Low: 68ºf @5:57 AM     Approx. Precipitation / Rain Total: in.
Time (PDT)Temp. (ºf)Humidity (%)Dew Point (ºf)Barometer (inHG)Wind Speed (mph)Wind DirectionWind Gust (mph)1hr. Precip / Rain Total (in.)Snow Depth
10:57 PM774252.13-0.87e4.34--
9:57 PM774151.48-2.61w7.82--
8:57 PM793750.48-5.21wsw9.56--
7:57 PM833048.34-5.21wnw13.03--
6:57 PM882648.78-9.56wsw18.25--
5:57 PM922247.66-11.3w21.72--
4:57 PM952250.14-11.3wsw20.86--
3:57 PM962352.17-12.17wsw21.72--
2:57 PM952351.34-13.9sse20.86--
1:57 PM972353-8.69wsw19.12--
12:57 PM952250.14-9.56s17.38--
11:57 AM942653.84-6.08w12.17--
10:57 AM882951.72-3.48wsw7.82--
9:57 AM843250.94-2.61wsw4.34--
8:57 AM784253.03-2.61s5.21--
5:57 AM686154.04-2.61ese3.48--
4:57 AM705754.05-0.87ene2.61--
3:57 AM705955-0.87sse3.48--
2:57 AM715252.48-1.74n2.61--
1:57 AM745054.16-2.61ene3.48--
12:57 AM734952.7---4.34--
High: 96ºf @4:57 PM    Low: 63ºf @1:57 AM     Approx. Precipitation / Rain Total: in.
Time (PDT)Temp. (ºf)Humidity (%)Dew Point (ºf)Barometer (inHG)Wind Speed (mph)Wind DirectionWind Gust (mph)1hr. Precip / Rain Total (in.)Snow Depth
11:57 PM744953.61-0.87nne5.21--
10:57 PM745154.71-2.61ssw5.21--
9:57 PM754853.96-3.48sw6.08--
8:57 PM794354.57-4.34nw8.69--
7:57 PM823954.57-6.08w13.03--
6:57 PM883254.4-9.56wsw16.51--
5:57 PM913156.12-11.3w17.38--
4:57 PM962453.33-4.34sw19.12--
3:57 PM942451.66-12.17sse22.59--
2:57 PM942451.66-13.03s21.72--
12:57 PM903256.13-13.9s24.33--
11:57 AM893759.3-12.17ssw16.51--
10:57 AM884261.99-3.48wsw6.95--
9:57 AM825262.61-3.48sw6.08--
8:57 AM746461.03-0.87wsw3.48--
7:57 AM707160.15---2.61--
6:57 AM658259.37-0.87se4.34--
5:57 AM648459.06-2.61ese3.48--
4:57 AM638558.41-3.48nne4.34--
3:57 AM638658.74---2.61--
2:57 AM638658.74-0.87se2.61--
1:57 AM638759.07---2.61--
12:57 AM638558.41---2.61--
High: 85ºf @12:57 PM    Low: 66ºf @4:57 AM     Approx. Precipitation / Rain Total: in.
Time (PDT)Temp. (ºf)Humidity (%)Dew Point (ºf)Barometer (inHG)Wind Speed (mph)Wind DirectionWind Gust (mph)1hr. Precip / Rain Total (in.)Snow Depth
10:57 PM667959.29-3.48wsw6.95--
9:57 PM677558.81-2.61wsw5.21--
8:57 PM697259.59-5.21sw7.82--
7:57 PM726559.58-6.08wsw10.43--
6:57 PM805461.84-4.34w9.56--
5:57 PM786062.97-6.95ssw13.03--
4:57 PM805361.31-7.82w13.9--
3:57 PM835162.98-6.08wsw16.51--
2:57 PM815462.76-11.3s19.12--
1:57 PM815161.14-13.9sse19.99--
12:57 PM853957.23-3.48w8.69--
11:57 AM833955.46-3.48wsw6.95--
10:57 AM784957.27-2.61w5.21--
9:57 AM736560.52-0.87w6.08--
8:57 AM707461.32-1.74w6.95--
7:57 AM687660.14-3.48wsw8.69--
6:57 AM686957.44-0.87n10.43--
5:57 AM676755.67-3.48n6.08--
4:57 AM667357.09-4.34wsw6.95--
2:57 AM676655.26-2.61ese6.95--
1:57 AM666855.13-0.87nne3.48--
12:57 AM666955.53-2.61s4.34--
High: 86ºf @2:57 PM    Low: 61ºf @4:57 AM     Approx. Precipitation / Rain Total: in.
Time (PDT)Temp. (ºf)Humidity (%)Dew Point (ºf)Barometer (inHG)Wind Speed (mph)Wind DirectionWind Gust (mph)1hr. Precip / Rain Total (in.)Snow Depth
11:57 PM666754.72-2.61sw6.08--
10:57 PM686555.79-1.74wsw4.34--
9:57 PM696456.3-3.48ssw6.95--
8:57 PM715754.99-6.08wsw15.64--
7:57 PM744853.05-10.43s19.12--
6:57 PM793246.6-13.03sse20.86--
4:57 PM852646.24-15.64sse26.07--
3:57 PM853856.51-15.64s26.07--
2:57 PM863555.12-15.64s24.33--
1:57 PM853655.02-14.77s22.59--
12:57 PM843855.63-13.03s20.86--
11:57 AM833653.26-11.3ssw18.25--
10:57 AM814557.63-5.21wsw10.43--
9:57 AM785057.83-1.74w6.08--
8:57 AM726660.01-0.87wsw3.48--
7:57 AM697359.97---2.61--
6:57 AM658259.37-0.87ese2.61--
5:57 AM628457.11---3.48--
4:57 AM618656.78-2.61sw5.21--
3:57 AM648057.7-3.48ssw4.34--
2:57 AM667858.94-0.87s2.61--
1:57 AM657857.97-1.74sw4.34--
12:57 AM667557.84-2.61wnw8.69--
High: 87ºf @2:57 PM    Low: 63ºf @5:57 AM     Approx. Precipitation / Rain Total: in.
Time (PDT)Temp. (ºf)Humidity (%)Dew Point (ºf)Barometer (inHG)Wind Speed (mph)Wind DirectionWind Gust (mph)1hr. Precip / Rain Total (in.)Snow Depth
11:57 PM687258.63-7.82s10.43--
10:57 PM706858.94-5.21s7.82--
9:57 PM696757.58-3.48sw6.08--
8:57 PM736058.28-2.61wsw7.82--
7:57 PM774453.4-7.82ssw14.77--
6:57 PM803852.09-10.43s19.12--
5:57 PM814356.37-11.3s20.86--
4:57 PM843754.89-13.9sse22.59--
3:57 PM863050.92-13.9sse21.72--
2:57 PM873051.78-15.64s24.33--
1:57 PM853755.78-13.9sse20.86--
12:57 PM872950.86-13.9ssw20.86--
11:57 AM843654.14-13.03ssw18.25--
10:57 AM814457.01-4.34w10.43--
9:57 AM755457.21-9.56ssw13.9--
8:57 AM725956.87-1.74wnw4.34--
7:57 AM696456.3-1.74w6.08--
6:57 AM647756.64-0.87nne5.21--
5:57 AM638357.75-3.48ese4.34--
4:57 AM638759.07-1.74ese3.48--
3:57 AM638558.41-3.48s6.08--
2:57 AM657757.61-3.48ssw4.34--
1:57 AM667256.71---3.48--
12:57 AM686957.44-2.61wsw4.34--
High: 91ºf @3:57 PM    Low: 66ºf @5:57 AM     Approx. Precipitation / Rain Total: in.
Time (PDT)Temp. (ºf)Humidity (%)Dew Point (ºf)Barometer (inHG)Wind Speed (mph)Wind DirectionWind Gust (mph)1hr. Precip / Rain Total (in.)Snow Depth
11:57 PM696757.58-2.61w4.34--
10:57 PM696757.58-2.61wnw5.21--
9:57 PM716156.86-4.34wsw14.77--
8:57 PM755256.16-9.56ssw14.77--
7:57 PM794555.82-8.69ssw18.25--
6:57 PM843452.58-12.17s18.25--
5:57 PM892750.64-13.03sse21.72--
4:57 PM902650.47-13.9sse22.59--
3:57 PM912651.31-13.9sse22.59--
2:57 PM912954.28-15.64sse23.46--
1:57 PM903054.36-15.64sse23.46--
12:57 PM893356.12-13.9s20.86--
11:57 AM883456.07-11.3ssw18.25--
10:57 AM853755.78-8.69ssw13.9--
9:57 AM804959.1-2.61wsw5.21--
8:57 AM756160.62-1.74sw4.34--
7:57 AM726559.58-0.87nnw4.34--
6:57 AM677659.18-0.87n3.48--
5:57 AM667858.94-2.61ssw3.48--
4:57 AM677358.05---1.74--
2:57 AM687359.01-1.74ese3.48--
1:57 AM688061.59-0.87n3.48--
12:57 AM697962.21---4.34--
High: 93ºf @4:57 PM    Low: 70ºf @10:57 PM     Approx. Precipitation / Rain Total: in.
Time (PDT)Temp. (ºf)Humidity (%)Dew Point (ºf)Barometer (inHG)Wind Speed (mph)Wind DirectionWind Gust (mph)1hr. Precip / Rain Total (in.)Snow Depth
10:57 PM707662.08-8.69s17.38--
9:57 PM736761.38-9.56sw19.12--
8:57 PM775459.06-9.56s15.64--
7:57 PM804657.34-8.69ssw16.51--
6:57 PM853755.78-11.3s21.72--
5:57 PM883355.25-12.17sse21.72--
4:57 PM932653-12.17s19.99--
3:57 PM922551.09-13.9sse22.59--
2:57 PM922652.15-15.64sse25.2--
1:57 PM912853.32-18.25sse24.33--
12:57 PM893356.12-14.77sse22.59--
11:57 AM883254.4-13.9ssw22.59--
10:57 AM873051.78-9.56ssw14.77--
9:57 AM863151.81-6.08ssw10.43--
8:57 AM803852.09-2.61sw5.21--
High: 99ºf @3:57 PM    Low: 71ºf @5:57 AM     Approx. Precipitation / Rain Total: in.
Time (PDT)Temp. (ºf)Humidity (%)Dew Point (ºf)Barometer (inHG)Wind Speed (mph)Wind DirectionWind Gust (mph)1hr. Precip / Rain Total (in.)Snow Depth
9:57 PM794253.92-3.48sw5.21--
8:57 PM823753.13-3.48w7.82--
7:57 PM873152.67-3.48w9.56--
6:57 PM902852.47-6.95w15.64--
5:57 PM932754.03-10.43w18.25--
4:57 PM972454.16-9.56ssw19.99--
3:57 PM992354.66-11.3ssw19.12--
2:57 PM982050.03-11.3s19.12--
1:57 PM982252.61-8.69s16.51--
12:57 PM952452.49-7.82ssw15.64--
11:57 AM932653-6.08ssw11.3--
10:57 AM902650.47-4.34w6.95--
9:57 AM843553.37-3.48wsw6.08--
8:57 AM793951.9-2.61sw4.34--
7:57 AM774050.81-0.87nne2.61--
6:57 AM724650.07---2.61--
5:57 AM714447.98-0.87nne3.48--
4:57 AM724951.78-0.87nne4.34--
High: 98ºf @1:57 PM    Low: 69ºf @6:57 AM     Approx. Precipitation / Rain Total: in.
Time (PDT)Temp. (ºf)Humidity (%)Dew Point (ºf)Barometer (inHG)Wind Speed (mph)Wind DirectionWind Gust (mph)1hr. Precip / Rain Total (in.)Snow Depth
6:57 PM912550.25-6.95wnw14.77--
5:57 PM942249.31-8.69wnw18.25--
4:57 PM952148.89-12.17w19.12--
3:57 PM962250.96-12.17w21.72--
2:57 PM972251.79-8.69w21.72--
1:57 PM982252.61-9.56wnw18.25--
12:57 PM952351.34-8.69ssw14.77--
11:57 AM922551.09-6.08ssw12.17--
10:57 AM882749.79-5.21w8.69--
9:57 AM833048.34-3.48wsw6.08--
8:57 AM793649.74-0.87sw2.61--
7:57 AM753948.35---2.61--
6:57 AM694747.92-2.61ese5.21--
5:57 AM704547.67-1.74ne3.48--
4:57 AM714548.58---4.34--
3:57 AM724448.88-1.74ene4.34--
2:57 AM734147.89-2.61ese4.34--
1:57 AM744350.07-1.74ene3.48--
12:57 AM754149.69-0.87wnw2.61--
High: 99ºf @1:57 PM    Low: 71ºf @4:57 AM     Approx. Precipitation / Rain Total: in.
Time (PDT)Temp. (ºf)Humidity (%)Dew Point (ºf)Barometer (inHG)Wind Speed (mph)Wind DirectionWind Gust (mph)1hr. Precip / Rain Total (in.)Snow Depth
11:57 PM753847.65-0.87w2.61--
10:57 PM773950.13-1.74wsw6.08--
9:57 PM793347.42-5.21wnw6.95--
8:57 PM813147.49-4.34w8.69--
7:57 PM842645.4-6.08wnw11.3--
6:57 PM892245.18-8.69wnw17.38--
5:57 PM922146.43-10.43w19.99--
4:57 PM942249.31-13.9w21.72--
3:57 PM952351.34-13.9wsw21.72--
2:57 PM972150.53-13.9wsw19.99--
1:57 PM991949.47-6.95wsw17.38--
12:57 PM972049.22-6.95s15.64--
11:57 AM942046.77-6.08wnw12.17--
10:57 AM902043.5-3.48w6.95--
9:57 AM862343.86-2.61wsw5.21--
8:57 AM793649.74-2.61sw5.21--
7:57 AM753948.35-2.61s3.48--
6:57 AM733946.57-0.87ne3.48--
5:57 AM714347.36---2.61--
4:57 AM714146.1-2.61sse5.21--
3:57 AM733543.72---7.82--
2:57 AM723945.67-4.34n6.95--
1:57 AM753243.12-1.74s3.48--
12:57 AM763143.16-0.87nw5.21--
High: 99ºf @1:57 PM    Low: 67ºf @6:57 AM     Approx. Precipitation / Rain Total: in.
Time (PDT)Temp. (ºf)Humidity (%)Dew Point (ºf)Barometer (inHG)Wind Speed (mph)Wind DirectionWind Gust (mph)1hr. Precip / Rain Total (in.)Snow Depth
11:57 PM763042.31-0.87nnw4.34--
10:57 PM782842.24-3.48wnw4.34--
9:57 PM792742.14-2.61wsw6.95--
8:57 PM802742.99-5.21wsw10.43--
7:57 PM842241.04-6.95wnw13.03--
6:57 PM892245.18-6.08w14.77--
5:57 PM921943.79-9.56w18.25--
4:57 PM951844.8-9.56w19.12--
3:57 PM981948.66-8.69wsw21.72--
2:57 PM981745.7-9.56s19.12--
1:57 PM991644.9-7.82ssw15.64--
12:57 PM95824.47-5.21wsw8.69--
11:57 AM921027.62-3.48w6.95--
10:57 AM852949.15-1.74w6.08--
9:57 AM793750.48-1.74w6.08--
8:57 AM744752.47-3.48wsw6.08--
7:57 AM704849.4-1.74nne4.34--
6:57 AM675449.8-2.61ese5.21--
4:57 AM704949.95-3.48sw7.82--
3:57 AM704849.4-0.87s4.34--
2:57 AM705452.58-3.48se4.34--
1:57 AM724147-1.74wnw6.08--
12:57 AM734349.17-3.48nne4.34--
High: 97ºf @2:57 PM    Low: 64ºf @5:57 AM     Approx. Precipitation / Rain Total: in.
Time (PDT)Temp. (ºf)Humidity (%)Dew Point (ºf)Barometer (inHG)Wind Speed (mph)Wind DirectionWind Gust (mph)1hr. Precip / Rain Total (in.)Snow Depth
10:57 PM744148.79-3.48wsw8.69--
9:57 PM754149.69-3.48sw7.82--
8:57 PM773748.71-5.21wsw10.43--
7:57 PM823148.35-6.95wsw13.9--
6:57 PM872849.92-7.82ssw19.99--
5:57 PM912246.83-10.43wsw18.25--
4:57 PM952351.34-8.69wsw18.25--
3:57 PM962453.33-9.56sw18.25--
2:57 PM972049.22-10.43s17.38--
1:57 PM942249.31-8.69ssw18.25--
12:57 PM932349.68-7.82ssw14.77--
11:57 AM902650.47-3.48w7.82--
10:57 AM862546.05-3.48w7.82--
9:57 AM793649.74-3.48sw6.08--
8:57 AM744953.61-1.74wnw3.48--
7:57 AM695753.12-1.74nnw3.48--
6:57 AM665649.85-2.61n5.21--
5:57 AM645949.38-3.48se5.21--
4:57 AM674846.65-3.48nnw5.21--
3:57 AM675349.3---3.48--
2:57 AM685953.13-3.48se5.21--
1:57 AM695049.58-0.87n4.34--
12:57 AM705653.57-0.87sw2.61--
High: 91ºf @4:57 PM    Low: 63ºf @4:57 AM     Approx. Precipitation / Rain Total: in.
Time (PDT)Temp. (ºf)Humidity (%)Dew Point (ºf)Barometer (inHG)Wind Speed (mph)Wind DirectionWind Gust (mph)1hr. Precip / Rain Total (in.)Snow Depth
11:57 PM715654.5-1.74sw2.61--
10:57 PM734852.13-1.74nne3.48--
9:57 PM734852.13-3.48nw9.56--
8:57 PM764150.58-6.95sw9.56--
7:57 PM813752.25-4.34wsw10.43--
6:57 PM863252.67-6.08wsw12.17--
5:57 PM893255.27-8.69wsw17.38--
4:57 PM912044.32-9.56s19.99--
3:57 PM902144.78-14.77sse22.59--
2:57 PM892447.48-14.77s22.59--
1:57 PM892548.57-14.77sse22.59--
12:57 PM883052.64-12.17s19.99--
11:57 AM862748.09-12.17ssw19.99--
10:57 AM823249.2-12.17ssw19.12--
9:57 AM783749.6-1.74w6.08--
8:57 AM726358.7-1.74sw4.34--
7:57 AM666252.6---2.61--
6:57 AM647154.4-1.74n2.61--
5:57 AM637856.03-0.87n3.48--
4:57 AM638759.07-0.87nnw4.34--
3:57 AM638558.41-2.61s4.34--
2:57 AM658159.02-2.61wsw7.82--
1:57 AM667457.47-3.48sw5.21--
12:57 AM676755.67---3.48--
High: 92ºf @2:57 PM    Low: 63ºf @4:57 AM     Approx. Precipitation / Rain Total: in.
Time (PDT)Temp. (ºf)Humidity (%)Dew Point (ºf)Barometer (inHG)Wind Speed (mph)Wind DirectionWind Gust (mph)1hr. Precip / Rain Total (in.)Snow Depth
11:57 PM696456.3-0.87wsw3.48--
10:57 PM696355.87-3.48w5.21--
8:57 PM735354.84-4.34wsw10.43--
7:57 PM775157.47-5.21sw14.77--
6:57 PM841835.92-12.17sse23.46--
5:57 PM871533.74-14.77sse23.46--
4:57 PM901230.55-15.64sse23.46--
3:57 PM911333.31-15.64sse23.46--
2:57 PM921232.09-15.64sse26.07--
1:57 PM901637.75-13.9sse23.46--
12:57 PM882244.35-16.51sse25.2--
11:57 AM861837.53-13.03s21.72--
10:57 AM842443.3-11.3ssw16.51--
9:57 AM804355.47-3.48sw6.08--
8:57 AM755557.72-2.61nw5.21--
7:57 AM687258.63-0.87nnw1.74--
6:57 AM649462.24---2.61--
5:57 AM639461.24-3.48s4.34--
4:57 AM639160.33-0.87s7.82--
3:57 AM658761.03-4.34sse6.08--
2:57 AM648559.39-2.61ssw4.34--
1:57 AM677257.67-1.74wsw5.21--
12:57 AM716156.86-1.74ssw5.21--
High: 89ºf @2:57 PM    Low: 67ºf @5:57 AM     Approx. Precipitation / Rain Total: in.
Time (PDT)Temp. (ºf)Humidity (%)Dew Point (ºf)Barometer (inHG)Wind Speed (mph)Wind DirectionWind Gust (mph)1hr. Precip / Rain Total (in.)Snow Depth
11:57 PM725152.87-2.61wsw7.82--
10:57 PM753646.22-5.21ssw10.43--
9:57 PM774855.79-6.95sw14.77--
8:57 PM792338.02-9.56s14.77--
7:57 PM821428.09-9.56sse17.38--
6:57 PM851633.76-13.03sse19.12--
5:57 PM861837.53-13.9sse20.86--
4:57 PM881940.54-13.9sse20.86--
3:57 PM872950.86-13.03sse22.59--
2:57 PM892447.48-13.9sse23.46--
1:57 PM892447.48-13.9s25.2--
12:57 PM883153.53-15.64sse23.46--
11:57 AM863454.33-13.03sse19.99--
10:57 AM882345.52-6.08sw13.9--
9:57 AM833350.9-2.61wsw7.82--
8:57 AM794354.57-1.74nnw3.48--
7:57 AM735555.86-0.87sse5.21--
6:57 AM686254.48-2.61se3.48--
5:57 AM676353.98-0.87nnw4.34--
3:57 AM686656.21-2.61ese3.48--
2:57 AM706356.81-4.34ne6.08--
12:57 AM686857.03-5.21s5.21--
High: 90ºf @4:57 PM    Low: 68ºf @1:57 AM     Approx. Precipitation / Rain Total: in.
Time (PDT)Temp. (ºf)Humidity (%)Dew Point (ºf)Barometer (inHG)Wind Speed (mph)Wind DirectionWind Gust (mph)1hr. Precip / Rain Total (in.)Snow Depth
11:57 PM706758.53-2.61nw6.08--
10:57 PM716558.63-5.21sw9.56--
9:57 PM745255.24-6.95sw16.51--
8:57 PM764452.49-11.3ssw18.25--
7:57 PM804254.82-12.17s19.12--
6:57 PM853554.25-11.3sse17.38--
5:57 PM883859.17-5.21wsw11.3--
4:57 PM903760.18-4.34wsw13.9--
3:57 PM902852.47-8.69sse18.25--
2:57 PM903256.13-11.3sse18.25--
12:57 PM834660.06-12.17s17.38--
11:57 AM864058.83-7.82sw13.9--
10:57 AM834156.84-2.61wsw7.82--
9:57 AM804959.1-4.34se6.95--
8:57 AM766061.09-3.48sw6.95--
7:57 AM707461.32-0.87s6.08--
6:57 AM697560.74-3.48w6.95--
5:57 AM687760.51-1.74nne3.48--
4:57 AM687660.14-3.48s4.34--
3:57 AM687961.24-0.87wsw3.48--
2:57 AM687860.88-2.61n3.48--
1:57 AM687860.88-1.74s3.48--
12:57 AM687660.14---2.61--
High: 94ºf @3:57 PM    Low: 66ºf @6:57 AM     Approx. Precipitation / Rain Total: in.
Time (PDT)Temp. (ºf)Humidity (%)Dew Point (ºf)Barometer (inHG)Wind Speed (mph)Wind DirectionWind Gust (mph)1hr. Precip / Rain Total (in.)Snow Depth
11:57 PM687760.51-0.87sw3.48--
10:57 PM687660.14-1.74wsw6.08--
9:57 PM707059.75-3.48sw5.21--
8:57 PM726760.43-5.21wsw9.56--
7:57 PM775961.55-6.08sw14.77--
6:57 PM824960.93-9.56s16.51--
5:57 PM864260.2-10.43ssw19.99--
4:57 PM903457.82-13.9s22.59--
3:57 PM942855.88-11.3sse19.12--
2:57 PM922955.14-13.9sse20.86--
1:57 PM922753.18-13.03s19.12--
12:57 PM942653.84-3.48w11.3--
11:57 AM882951.72-7.82ssw13.03--
10:57 AM853554.25-7.82wsw13.03--
9:57 AM804657.34-6.95wsw13.03--
8:57 AM745757.78-2.61sw5.21--
6:57 AM667457.47-0.87sw3.48--
5:57 AM667055.93-1.74wnw2.61--
4:57 AM666955.53---3.48--
3:57 AM686455.36-0.87se5.21--
2:57 AM686555.79-2.61ssw3.48--
1:57 AM706055.46-0.87n4.34--
12:57 AM715855.47-1.74wnw3.48--
High: 93ºf @2:57 PM    Low: 67ºf @4:57 AM     Approx. Precipitation / Rain Total: in.
Time (PDT)Temp. (ºf)Humidity (%)Dew Point (ºf)Barometer (inHG)Wind Speed (mph)Wind DirectionWind Gust (mph)1hr. Precip / Rain Total (in.)Snow Depth
11:57 PM725554.94-3.48n4.34--
10:57 PM735555.86-1.74wsw4.34--
9:57 PM755155.63-2.61sw9.56--
8:57 PM765759.65-5.21sw15.64--
7:57 PM795058.75-9.56s17.38--
6:57 PM834257.51-11.3s21.72--
5:57 PM873253.54-13.03s24.33--
4:57 PM882850.77-16.51s26.94--
3:57 PM912246.83-14.77s24.33--
2:57 PM932855.03-13.9s21.72--
1:57 PM932754.03-12.17s20.86--
12:57 PM912752.33-13.9ssw19.99--
11:57 AM932754.03-4.34sw9.56--
10:57 AM883355.25-4.34w7.82--
9:57 AM824155.95-3.48w6.95--
8:57 AM784756.11-1.74nw5.21--
6:57 AM696456.3-2.61n6.95--
5:57 AM687057.84-1.74ene5.21--
4:57 AM677056.88-4.34n6.08--
3:57 AM687158.24-0.87nw2.61--
2:57 AM687158.24---7.82--
1:57 AM706557.68-4.34ssw7.82--
12:57 AM716156.86-5.21ssw10.43--
High: 96ºf @1:57 PM    Low: 69ºf @4:57 AM     Approx. Precipitation / Rain Total: in.
Time (PDT)Temp. (ºf)Humidity (%)Dew Point (ºf)Barometer (inHG)Wind Speed (mph)Wind DirectionWind Gust (mph)1hr. Precip / Rain Total (in.)Snow Depth
11:57 PM725856.4-4.34sw11.3--
10:57 PM735555.86-7.82ssw10.43--
9:57 PM745154.71-6.95ssw14.77--
8:57 PM764452.49-8.69s17.38--
7:57 PM793951.9-9.56s19.12--
5:57 PM903256.13-11.3s17.38--
4:57 PM923156.98-13.03s18.25--
3:57 PM913458.69-13.03s23.46--
2:57 PM962958.55-13.03s23.46--
1:57 PM962857.58-12.17s18.25--
12:57 PM962756.57-6.08w10.43--
11:57 AM952755.72-4.34w7.82--
10:57 AM893255.27-4.34wsw8.69--
9:57 AM834257.51-2.61wsw6.08--
8:57 AM804757.93-0.87sw3.48--
7:57 AM745255.24---2.61--
6:57 AM725755.92---6.08--
5:57 AM696355.87-4.34n6.08--
4:57 AM696556.73-0.87w3.48--
3:57 AM715654.5-0.87nnw4.34--
2:57 AM725856.4-4.34se6.95--
1:57 AM735857.33-1.74w4.34--
12:57 AM755457.21-3.48sw4.34--
High: 101ºf @1:57 PM    Low: 69ºf @4:57 AM     Approx. Precipitation / Rain Total: in.
Time (PDT)Temp. (ºf)Humidity (%)Dew Point (ºf)Barometer (inHG)Wind Speed (mph)Wind DirectionWind Gust (mph)1hr. Precip / Rain Total (in.)Snow Depth
11:57 PM774855.79-2.61ssw4.34--
10:57 PM784454.3---6.95--
9:57 PM804053.48-3.48wsw6.95--
7:57 PM863151.81-7.82w16.51--
6:57 PM913055.22-9.56w15.64--
5:57 PM962857.58-7.82w14.77--
4:57 PM982859.28-9.56sw19.99--
3:57 PM1002557.79-9.56sw16.51--
2:57 PM982556.12-8.69w18.25--
1:57 PM1012457.49-7.82wsw18.25--
12:57 PM982859.28-4.34sw13.9--
11:57 AM953159.57-6.08ssw12.17--
10:57 AM903256.13-1.74wsw6.95--
9:57 AM844258.41-3.48wsw5.21--
8:57 AM814658.24-0.87w4.34--
7:57 AM755457.21-0.87n4.34--
6:57 AM716458.2-0.87ene5.21--
4:57 AM696456.3-0.87ene2.61--
3:57 AM706055.46-2.61ne5.21--
2:57 AM706256.37-1.74nw3.48--
12:57 AM726258.25-2.61ssw5.21--
High: 97ºf @11:57 AM    Low: 66ºf @5:57 AM     Approx. Precipitation / Rain Total: in.
Time (PDT)Temp. (ºf)Humidity (%)Dew Point (ºf)Barometer (inHG)Wind Speed (mph)Wind DirectionWind Gust (mph)1hr. Precip / Rain Total (in.)Snow Depth
11:57 PM735957.81-0.87s3.48--
10:57 PM745657.29-1.74nnw7.82--
9:57 PM765257.08-5.21sw6.08--
8:57 PM794757.02-2.61wsw6.95--
7:57 PM834156.84-4.34wsw8.69--
6:57 PM873858.28-6.08sw12.17--
5:57 PM923056.07-9.56wsw13.03--
4:57 PM943158.7-6.08ssw12.17--
3:57 PM952957.7-7.82ssw13.9--
2:57 PM962453.33-9.56s14.77--
1:57 PM962453.33-10.43s18.25--
12:57 PM972251.79-11.3s17.38--
11:57 AM972251.79-6.08wsw15.64--
10:57 AM922955.14-2.61wsw6.95--
9:57 AM853755.78-3.48sw6.08--
8:57 AM824357.27-1.74n6.95--
7:57 AM725956.87-2.61ese6.08--
6:57 AM686857.03-2.61e6.08--
5:57 AM667357.09-2.61ssw5.21--
4:57 AM667156.32-2.61ssw11.3--
3:57 AM676655.26-4.34ssw5.21--
2:57 AM706055.46-2.61ssw3.48--
1:57 AM715654.5-1.74wsw4.34--
12:57 AM725655.43-1.74sw2.61--
High: 96ºf @1:57 PM    Low: 67ºf @5:57 AM     Approx. Precipitation / Rain Total: in.
Time (PDT)Temp. (ºf)Humidity (%)Dew Point (ºf)Barometer (inHG)Wind Speed (mph)Wind DirectionWind Gust (mph)1hr. Precip / Rain Total (in.)Snow Depth
11:57 PM735455.36-1.74s6.08--
10:57 PM754753.38-1.74w5.21--
9:57 PM774654.61-3.48w6.95--
8:57 PM794253.92-3.48wsw9.56--
7:57 PM853453.45-6.08w9.56--
6:57 PM922854.17-6.95wsw13.03--
5:57 PM952856.73-6.08ssw15.64--
4:57 PM942754.87-9.56s15.64--
3:57 PM952654.68-11.3ssw18.25--
2:57 PM962352.17-13.03s19.99--
1:57 PM962554.44-8.69ssw13.9--
12:57 PM962655.52-6.08wsw13.03--
11:57 AM922146.43-4.34w8.69--
10:57 AM862950.01-3.48wsw7.82--
9:57 AM813852.97-3.48wsw6.95--
8:57 AM774453.4-3.48wsw4.34--
7:57 AM734751.56-0.87nnw2.61--
6:57 AM685651.71---3.48--
5:57 AM675851.73-1.74e4.34--
4:57 AM675851.73-0.87ese2.61--
3:57 AM695451.65---3.48--
2:57 AM705151.03---3.48--
1:57 AM715252.48-1.74nw4.34--
12:57 AM724650.07-1.74n4.34--
High: 82ºf @7:57 PM    Low: 74ºf @10:57 PM     Approx. Precipitation / Rain Total: in.
Time (PDT)Temp. (ºf)Humidity (%)Dew Point (ºf)Barometer (inHG)Wind Speed (mph)Wind DirectionWind Gust (mph)1hr. Precip / Rain Total (in.)Snow Depth
10:57 PM744853.05-0.87wnw4.34--
9:57 PM754954.53-2.61w6.08--
8:57 PM774956.36-3.48wsw7.82--
7:57 PM824055.27-4.34wsw10.43--
Past Weather Disclaimer Note regarding "Approx. Precipitation / Rain Total"

Currently

A Few Clouds 75°F
29.99in
Barometer
54%
Humidity
Southeast 9.2mph
Wind
A Few Clouds

Past Weather Nearby

More Local Information

Bookmark and Share

Go Ad Free - Become a Member